createdAt,value
2019-03-10T00:01:30.792Z,6.10
2019-03-10T00:03:56.754Z,6.20
2019-03-10T00:06:23.461Z,6.20
2019-03-10T00:08:49.443Z,6.20
2019-03-10T00:11:15.408Z,6.20
2019-03-10T00:13:41.397Z,6.20
2019-03-10T00:16:07.362Z,6.20
2019-03-10T00:18:34.084Z,6.10
2019-03-10T00:21:00.058Z,6.20
2019-03-10T00:23:26.041Z,6.20
2019-03-10T00:25:52.017Z,6.20
2019-03-10T00:28:17.989Z,6.20
2019-03-10T00:30:43.997Z,6.20
2019-03-10T00:33:09.947Z,6.20
2019-03-10T00:35:36.672Z,6.20
2019-03-10T00:38:03.389Z,6.10
2019-03-10T00:40:29.383Z,6.10
2019-03-10T00:42:55.338Z,6.10
2019-03-10T00:45:21.320Z,6.10
2019-03-10T00:47:47.273Z,6.10
2019-03-10T00:50:13.244Z,6.00
2019-03-10T00:52:39.968Z,6.00
2019-03-10T00:55:06.706Z,6.00
2019-03-10T00:57:32.698Z,6.00
2019-03-10T01:00:00.527Z,6.00
2019-03-10T01:02:24.687Z,6.00
2019-03-10T01:04:51.417Z,6.00
2019-03-10T01:07:17.362Z,6.00
2019-03-10T01:09:43.312Z,6.00
2019-03-10T01:12:09.296Z,6.00
2019-03-10T01:14:35.996Z,6.00
2019-03-10T01:17:01.967Z,6.00
2019-03-10T01:19:28.660Z,5.90
2019-03-10T01:21:54.642Z,5.90
2019-03-10T01:24:21.338Z,5.90
2019-03-10T01:26:47.360Z,5.80
2019-03-10T01:29:13.329Z,5.80
2019-03-10T01:31:39.335Z,5.80
2019-03-10T01:34:06.017Z,5.80
2019-03-10T01:36:32.005Z,5.70
2019-03-10T01:38:58.695Z,5.70
2019-03-10T01:41:24.694Z,5.70
2019-03-10T01:43:50.640Z,5.70
2019-03-10T01:46:16.587Z,5.70
2019-03-10T01:48:43.334Z,5.60
2019-03-10T01:51:10.035Z,5.70
2019-03-10T01:53:36.008Z,5.60
2019-03-10T01:56:02.708Z,5.60
2019-03-10T01:58:29.008Z,5.60
2019-03-10T02:00:54.696Z,5.60
2019-03-10T02:03:21.396Z,5.60
2019-03-10T02:05:47.363Z,5.60
2019-03-10T02:08:13.342Z,5.60
2019-03-10T02:10:39.302Z,5.60
2019-03-10T02:13:06.026Z,5.70
2019-03-10T02:15:31.992Z,5.70
2019-03-10T02:17:57.966Z,5.70
2019-03-10T02:20:23.911Z,5.70
2019-03-10T02:22:49.901Z,5.70
2019-03-10T02:25:15.861Z,5.70
2019-03-10T02:27:41.822Z,5.70
2019-03-10T02:30:07.824Z,5.70
2019-03-10T02:32:33.811Z,5.70
2019-03-10T02:35:00.597Z,5.80
2019-03-10T02:37:26.547Z,5.70
2019-03-10T02:39:52.523Z,5.80
2019-03-10T02:42:18.483Z,5.80
2019-03-10T02:44:44.479Z,5.80
2019-03-10T02:47:10.433Z,5.70
2019-03-10T02:49:36.435Z,5.70
2019-03-10T02:52:02.399Z,5.70
2019-03-10T02:54:29.137Z,5.80
2019-03-10T02:56:55.093Z,5.70
2019-03-10T02:59:21.079Z,5.80
2019-03-10T03:01:47.063Z,5.80
2019-03-10T03:04:13.038Z,5.70
2019-03-10T03:06:39.754Z,5.70
2019-03-10T03:09:05.715Z,5.70
2019-03-10T03:11:31.701Z,5.70
2019-03-10T03:13:57.679Z,5.70
2019-03-10T03:16:23.666Z,5.70
2019-03-10T03:18:50.382Z,5.70
2019-03-10T03:21:16.377Z,5.70
2019-03-10T03:23:42.338Z,5.70
2019-03-10T03:26:08.341Z,5.70
2019-03-10T03:28:34.305Z,5.70
2019-03-10T03:31:01.036Z,5.80
2019-03-10T03:33:27.745Z,5.80
2019-03-10T03:35:53.730Z,5.80
2019-03-10T03:38:19.761Z,5.80
2019-03-10T03:40:45.758Z,5.80
2019-03-10T03:43:11.733Z,5.80
2019-03-10T03:45:37.710Z,5.80
2019-03-10T03:48:04.451Z,5.80
2019-03-10T03:50:30.423Z,5.80
2019-03-10T03:52:56.412Z,5.80
2019-03-10T03:55:22.395Z,5.80
2019-03-10T03:57:48.403Z,5.80
2019-03-10T04:00:14.379Z,5.90
2019-03-10T04:02:40.350Z,5.80
2019-03-10T04:05:06.294Z,5.80
2019-03-10T04:07:33.052Z,5.80
2019-03-10T04:09:59.035Z,5.80
2019-03-10T04:12:25.053Z,5.80
2019-03-10T04:14:51.031Z,5.70
2019-03-10T04:17:17.017Z,5.70
2019-03-10T04:19:42.973Z,5.80
2019-03-10T04:22:08.987Z,5.80
2019-03-10T04:24:35.715Z,5.80
2019-03-10T04:27:01.696Z,5.80
2019-03-10T04:29:27.690Z,5.80
2019-03-10T04:31:53.658Z,5.70
2019-03-10T04:34:19.635Z,5.60
2019-03-10T04:36:45.595Z,5.70
2019-03-10T04:39:11.619Z,5.70
2019-03-10T04:41:37.594Z,5.70
2019-03-10T04:44:04.333Z,5.70
2019-03-10T04:46:30.309Z,5.70
2019-03-10T04:48:56.309Z,5.60
2019-03-10T04:51:22.286Z,5.60
2019-03-10T04:53:48.282Z,5.60
2019-03-10T04:56:14.258Z,5.60
2019-03-10T04:58:40.254Z,5.60
2019-03-10T05:01:06.970Z,5.60
2019-03-10T05:03:32.950Z,5.60
2019-03-10T05:05:58.913Z,5.60
2019-03-10T05:08:24.906Z,5.50
2019-03-10T05:10:50.858Z,5.60
2019-03-10T05:13:16.863Z,5.60
2019-03-10T05:15:42.816Z,5.50
2019-03-10T05:18:08.793Z,5.50
2019-03-10T05:20:34.757Z,5.50
2019-03-10T05:23:00.755Z,5.50
2019-03-10T05:25:26.712Z,5.50
2019-03-10T05:27:52.699Z,5.50
2019-03-10T05:30:18.671Z,5.40
2019-03-10T05:32:45.399Z,5.40
2019-03-10T05:35:11.363Z,5.40
2019-03-10T05:37:37.322Z,5.30
2019-03-10T05:40:03.325Z,5.30
2019-03-10T05:42:29.286Z,5.30
2019-03-10T05:44:55.271Z,5.30
2019-03-10T05:47:21.231Z,5.30
2019-03-10T05:49:47.203Z,5.30
2019-03-10T05:52:13.176Z,5.40
2019-03-10T05:54:39.173Z,5.30
2019-03-10T05:57:05.232Z,5.30
2019-03-10T05:59:31.366Z,5.30
2019-03-10T06:01:57.375Z,5.30
2019-03-10T06:04:23.407Z,5.30
2019-03-10T06:06:50.127Z,5.20
2019-03-10T06:09:16.117Z,5.30
2019-03-10T06:11:42.080Z,5.30
2019-03-10T06:14:08.837Z,5.20
2019-03-10T06:16:34.802Z,5.20
2019-03-10T06:19:00.779Z,5.20
2019-03-10T06:21:26.768Z,5.30
2019-03-10T06:23:52.750Z,5.30
2019-03-10T06:26:18.716Z,5.40
2019-03-10T06:28:44.687Z,5.40
2019-03-10T06:31:10.669Z,5.40
2019-03-10T06:33:36.630Z,5.50
2019-03-10T06:36:02.625Z,5.50
2019-03-10T06:38:28.604Z,5.50
2019-03-10T06:40:54.619Z,5.50
2019-03-10T06:43:20.596Z,5.50
2019-03-10T06:45:46.576Z,5.50
2019-03-10T06:48:12.550Z,5.50
2019-03-10T06:50:39.286Z,5.60
2019-03-10T06:53:05.270Z,5.50
2019-03-10T06:55:31.256Z,5.60
2019-03-10T06:57:57.966Z,5.70
2019-03-10T07:00:24.695Z,5.70
2019-03-10T07:02:50.659Z,5.70
2019-03-10T07:05:16.663Z,5.70
2019-03-10T07:07:43.401Z,5.80
2019-03-10T07:10:09.401Z,5.80
2019-03-10T07:12:35.402Z,5.80
2019-03-10T07:15:01.447Z,5.80
2019-03-10T07:17:27.431Z,5.90
2019-03-10T07:19:53.445Z,6.00
2019-03-10T07:22:20.148Z,6.10
2019-03-10T07:24:46.106Z,6.10
2019-03-10T07:27:12.834Z,6.20
2019-03-10T07:29:39.536Z,6.20
2019-03-10T07:32:05.601Z,6.20
2019-03-10T07:34:31.588Z,6.30
2019-03-10T07:36:57.565Z,6.30
2019-03-10T07:39:23.527Z,6.30
2019-03-10T07:41:49.529Z,6.30
2019-03-10T07:44:15.530Z,6.30
2019-03-10T07:46:41.533Z,6.40
2019-03-10T07:49:08.257Z,6.40
2019-03-10T07:51:34.276Z,6.40
2019-03-10T07:54:00.249Z,6.50
2019-03-10T07:56:26.295Z,6.60
2019-03-10T07:58:52.254Z,6.60
2019-03-10T08:01:18.200Z,6.70
2019-03-10T08:03:44.196Z,6.80
2019-03-10T08:06:10.920Z,6.90
2019-03-10T08:08:36.950Z,6.90
2019-03-10T08:11:02.907Z,7.00
2019-03-10T08:13:29.633Z,7.10
2019-03-10T08:15:56.348Z,7.10
2019-03-10T08:18:22.343Z,7.10
2019-03-10T08:20:48.314Z,7.20
2019-03-10T08:23:14.296Z,7.30
2019-03-10T08:25:40.245Z,7.40
2019-03-10T08:28:06.239Z,7.40
2019-03-10T08:30:32.179Z,7.40
2019-03-10T08:32:58.179Z,7.50
2019-03-10T08:35:24.151Z,7.40
2019-03-10T08:37:50.157Z,7.40
2019-03-10T08:40:16.888Z,7.40
2019-03-10T08:42:42.837Z,7.40
2019-03-10T08:45:09.563Z,7.40
2019-03-10T08:47:35.520Z,7.40
2019-03-10T08:50:02.251Z,7.50
2019-03-10T08:52:28.951Z,7.60
2019-03-10T08:54:54.958Z,7.60
2019-03-10T08:57:20.986Z,7.60
2019-03-10T08:59:46.973Z,7.60
2019-03-10T09:02:12.967Z,7.60
2019-03-10T09:04:39.704Z,7.50
2019-03-10T09:07:05.708Z,7.40
2019-03-10T09:09:31.678Z,7.40
2019-03-10T09:11:58.423Z,7.30
2019-03-10T09:14:24.431Z,7.20
2019-03-10T09:16:51.163Z,7.10
2019-03-10T09:19:18.000Z,7.10
2019-03-10T09:21:44.082Z,7.10
2019-03-10T09:24:10.036Z,7.20
2019-03-10T09:26:36.038Z,7.20
2019-03-10T09:29:02.002Z,7.20
2019-03-10T09:31:27.980Z,7.20
2019-03-10T09:33:53.935Z,7.20
2019-03-10T09:36:19.936Z,7.30
2019-03-10T09:38:45.893Z,7.30
2019-03-10T09:41:12.614Z,7.30
2019-03-10T09:43:38.571Z,7.20
2019-03-10T09:46:04.536Z,7.20
2019-03-10T09:48:30.530Z,7.20
2019-03-10T09:50:56.556Z,7.20
2019-03-10T09:53:22.754Z,7.10
2019-03-10T09:55:48.801Z,7.10
2019-03-10T09:58:14.806Z,7.00
2019-03-10T10:00:41.562Z,7.20
2019-03-10T10:03:08.279Z,7.40
2019-03-10T10:05:34.257Z,7.40
2019-03-10T10:08:00.243Z,7.50
2019-03-10T10:10:26.965Z,7.50
2019-03-10T10:12:52.935Z,7.40
2019-03-10T10:15:18.903Z,7.50
2019-03-10T10:17:44.885Z,7.50
2019-03-10T10:20:10.861Z,7.50
2019-03-10T10:22:37.543Z,7.50
2019-03-10T10:25:03.536Z,7.50
2019-03-10T10:27:30.227Z,7.40
2019-03-10T10:29:56.724Z,7.40
2019-03-10T10:32:22.992Z,7.50
2019-03-10T10:34:48.982Z,7.50
2019-03-10T10:37:14.952Z,7.40
2019-03-10T10:39:40.948Z,7.50
2019-03-10T10:42:06.892Z,7.50
2019-03-10T10:44:32.886Z,7.50
2019-03-10T10:46:58.840Z,7.40
2019-03-10T10:49:24.860Z,7.20
2019-03-10T10:51:50.846Z,7.20
2019-03-10T10:54:16.834Z,7.20
2019-03-10T10:56:43.552Z,7.10
2019-03-10T10:59:09.519Z,7.00
2019-03-10T11:01:35.515Z,7.10
2019-03-10T11:04:01.462Z,7.20
2019-03-10T11:06:28.182Z,7.20
2019-03-10T11:08:54.894Z,7.20
2019-03-10T11:11:20.899Z,7.20
2019-03-10T11:13:46.857Z,7.20
2019-03-10T11:16:12.856Z,7.20
2019-03-10T11:18:38.807Z,7.20
2019-03-10T11:21:04.781Z,7.20
2019-03-10T11:23:30.741Z,7.20
2019-03-10T11:25:56.722Z,7.10
2019-03-10T11:28:22.677Z,7.10
2019-03-10T11:30:48.687Z,7.20
2019-03-10T11:33:14.663Z,7.30
2019-03-10T11:35:40.632Z,7.40
2019-03-10T11:38:06.610Z,7.40
2019-03-10T11:40:32.591Z,7.30
2019-03-10T11:42:59.363Z,7.00
2019-03-10T11:45:26.077Z,7.00
2019-03-10T11:47:52.067Z,7.00
2019-03-10T11:50:18.029Z,6.90
2019-03-10T11:52:44.022Z,6.90
2019-03-10T11:55:10.002Z,7.00
2019-03-10T11:57:36.744Z,6.90
2019-03-10T12:00:02.722Z,6.80
2019-03-10T12:02:28.713Z,6.80
2019-03-10T12:04:54.714Z,6.90
2019-03-10T12:07:21.449Z,6.60
2019-03-10T12:09:48.148Z,6.40
2019-03-10T12:12:14.139Z,6.30
2019-03-10T12:14:40.089Z,6.10
2019-03-10T12:17:06.085Z,6.00
2019-03-10T12:19:32.062Z,6.00
2019-03-10T12:21:58.018Z,5.80
2019-03-10T12:24:24.016Z,5.80
2019-03-10T12:26:50.711Z,5.80
2019-03-10T12:29:16.682Z,5.80
2019-03-10T12:31:43.398Z,5.70
2019-03-10T12:34:09.392Z,5.70
2019-03-10T12:36:35.408Z,5.60
2019-03-10T12:39:01.392Z,5.50
2019-03-10T12:41:28.080Z,5.40
2019-03-10T12:43:54.080Z,5.40
2019-03-10T12:46:20.088Z,5.50
2019-03-10T12:48:46.064Z,5.40
2019-03-10T12:51:12.014Z,5.40
2019-03-10T12:53:37.996Z,5.40
2019-03-10T12:56:03.942Z,5.30
2019-03-10T12:58:29.947Z,5.20
2019-03-10T13:01:05.796Z,5.20
2019-03-10T13:03:21.930Z,5.10
2019-03-10T13:05:47.913Z,5.00
2019-03-10T13:08:13.893Z,4.90
2019-03-10T13:10:40.615Z,4.80
2019-03-10T13:13:07.320Z,4.70
2019-03-10T13:15:33.318Z,4.70
2019-03-10T13:17:59.323Z,4.80
2019-03-10T13:20:28.585Z,4.90
2019-03-10T13:22:51.390Z,4.90
2019-03-10T13:25:17.391Z,4.90
2019-03-10T13:27:44.079Z,4.80
2019-03-10T13:30:10.068Z,4.80
2019-03-10T13:32:36.041Z,4.80
2019-03-10T13:35:02.019Z,4.70
2019-03-10T13:37:28.013Z,4.60
2019-03-10T13:39:54.716Z,4.70
2019-03-10T13:42:20.711Z,4.70
2019-03-10T13:44:46.690Z,4.80
2019-03-10T13:47:13.447Z,5.00
2019-03-10T13:49:40.155Z,4.90
2019-03-10T13:52:06.162Z,4.90
2019-03-10T13:54:32.224Z,4.90
2019-03-10T13:56:58.396Z,4.80
2019-03-10T13:59:24.322Z,4.70
2019-03-10T14:01:50.307Z,4.90
2019-03-10T14:04:17.012Z,4.80
2019-03-10T14:06:43.020Z,4.80
2019-03-10T14:09:09.027Z,4.80
2019-03-10T14:11:35.002Z,4.80
2019-03-10T14:14:01.708Z,4.60
2019-03-10T14:16:27.684Z,4.60
2019-03-10T14:18:53.645Z,4.50
2019-03-10T14:21:19.640Z,4.60
2019-03-10T14:23:45.609Z,4.50
2019-03-10T14:26:11.598Z,4.30
2019-03-10T14:28:37.581Z,4.30
2019-03-10T14:31:03.542Z,4.30
2019-03-10T14:33:29.560Z,4.30
2019-03-10T14:35:55.533Z,4.30
2019-03-10T14:38:22.256Z,4.20
2019-03-10T14:40:48.255Z,4.20
2019-03-10T14:43:14.294Z,4.30
2019-03-10T14:45:40.264Z,4.30
2019-03-10T14:48:06.993Z,4.20
2019-03-10T14:50:33.721Z,4.10
2019-03-10T14:52:59.738Z,4.10
2019-03-10T14:55:25.710Z,4.00
2019-03-10T14:57:51.711Z,3.90
2019-03-10T15:00:17.719Z,3.80
2019-03-10T15:02:43.706Z,3.80
2019-03-10T15:05:09.705Z,3.70
2019-03-10T15:07:35.728Z,3.60
2019-03-10T15:10:01.686Z,3.50
2019-03-10T15:12:27.670Z,3.30
2019-03-10T15:14:53.678Z,3.10
2019-03-10T15:17:19.689Z,2.90
2019-03-10T15:19:46.438Z,2.60
2019-03-10T15:22:12.458Z,2.60
2019-03-10T15:24:39.214Z,2.40
2019-03-10T15:27:05.204Z,2.40
2019-03-10T15:29:31.233Z,2.20
2019-03-10T15:31:57.267Z,2.20
2019-03-10T15:34:24.016Z,2.10
2019-03-10T15:36:50.014Z,2.10
2019-03-10T15:39:16.280Z,2.00
2019-03-10T15:41:42.550Z,2.00
2019-03-10T15:44:08.582Z,2.00
2019-03-10T15:46:34.596Z,2.00
2019-03-10T15:49:00.575Z,2.00
2019-03-10T15:51:26.564Z,2.00
2019-03-10T15:53:52.547Z,2.00
2019-03-10T15:56:18.539Z,2.00
2019-03-10T15:58:45.266Z,2.10
2019-03-10T16:01:11.302Z,2.10
2019-03-10T16:03:44.034Z,2.20
2019-03-10T16:06:10.044Z,2.30
2019-03-10T16:08:36.031Z,2.40
2019-03-10T16:11:02.783Z,2.40
2019-03-10T16:13:28.768Z,2.40
2019-03-10T16:15:54.762Z,2.40
2019-03-10T16:18:20.743Z,2.40
2019-03-10T16:20:47.463Z,2.50
2019-03-10T16:23:14.184Z,2.40
2019-03-10T16:25:40.172Z,2.40
2019-03-10T16:28:06.125Z,2.50
2019-03-10T16:30:32.133Z,2.50
2019-03-10T16:32:58.095Z,2.50
2019-03-10T16:35:24.832Z,2.50
2019-03-10T16:37:50.833Z,2.50
2019-03-10T16:40:16.817Z,2.50
2019-03-10T16:42:42.982Z,2.50
2019-03-10T16:45:09.007Z,2.50
2019-03-10T16:47:35.026Z,2.50
2019-03-10T16:50:00.991Z,2.50
2019-03-10T16:52:27.745Z,2.40
2019-03-10T16:54:54.481Z,2.50
2019-03-10T16:57:21.210Z,2.50
2019-03-10T16:59:47.924Z,2.50
2019-03-10T17:02:13.923Z,2.50
2019-03-10T17:04:39.883Z,2.60
2019-03-10T17:07:05.900Z,2.60
2019-03-10T17:09:31.857Z,2.60
2019-03-10T17:11:57.860Z,2.60
2019-03-10T17:14:24.579Z,2.60
2019-03-10T17:16:50.574Z,2.60
2019-03-10T17:19:16.528Z,2.60
2019-03-10T17:21:42.511Z,2.60
2019-03-10T17:24:08.517Z,2.70
2019-03-10T17:26:34.535Z,2.70
2019-03-10T17:29:00.518Z,2.70
2019-03-10T17:31:26.481Z,2.80
2019-03-10T17:33:53.201Z,2.80
2019-03-10T17:36:19.918Z,2.80
2019-03-10T17:38:45.904Z,2.80
2019-03-10T17:41:11.859Z,2.90
2019-03-10T17:43:37.868Z,2.90
2019-03-10T17:46:04.606Z,3.00
2019-03-10T17:48:30.618Z,3.00
2019-03-10T17:50:56.585Z,3.10
2019-03-10T17:53:22.592Z,3.20
2019-03-10T17:55:48.573Z,3.10
2019-03-10T17:58:14.531Z,3.20
2019-03-10T18:00:40.524Z,3.20
2019-03-10T18:03:06.484Z,3.20
2019-03-10T18:05:32.503Z,3.10
2019-03-10T18:07:58.466Z,3.10
2019-03-10T18:10:25.205Z,3.20
2019-03-10T18:12:51.913Z,3.20
2019-03-10T18:15:17.911Z,3.20
2019-03-10T18:17:43.884Z,3.20
2019-03-10T18:20:10.649Z,3.20
2019-03-10T18:22:36.614Z,3.20
2019-03-10T18:25:02.568Z,3.30
2019-03-10T18:27:29.309Z,3.40
2019-03-10T18:29:56.076Z,3.40
2019-03-10T18:32:22.073Z,3.40
2019-03-10T18:34:48.794Z,3.50
2019-03-10T18:37:14.801Z,3.60
2019-03-10T18:39:40.779Z,3.50
2019-03-10T18:42:07.503Z,3.50
2019-03-10T18:44:34.263Z,3.50
2019-03-10T18:47:00.339Z,3.50
2019-03-10T18:49:26.342Z,3.50
2019-03-10T18:51:52.348Z,3.50
2019-03-10T18:54:18.331Z,3.50
2019-03-10T18:56:44.316Z,3.50
2019-03-10T18:59:10.275Z,3.50
2019-03-10T19:01:36.267Z,3.50
2019-03-10T19:04:02.240Z,3.50
2019-03-10T19:06:28.975Z,3.50
2019-03-10T19:08:55.702Z,3.60
2019-03-10T19:11:21.697Z,3.50
2019-03-10T19:13:47.676Z,3.60
2019-03-10T19:16:13.639Z,3.60
2019-03-10T19:18:39.644Z,3.60
2019-03-10T19:21:05.646Z,3.60
2019-03-10T19:23:31.640Z,3.60
2019-03-10T19:25:57.611Z,3.60
2019-03-10T19:28:23.601Z,3.50
2019-03-10T19:30:50.319Z,3.60
2019-03-10T19:33:16.332Z,3.50
2019-03-10T19:35:42.308Z,3.60
2019-03-10T19:38:08.301Z,3.60
2019-03-10T19:40:34.281Z,3.60
2019-03-10T19:43:00.284Z,3.60
2019-03-10T19:45:26.241Z,3.60
2019-03-10T19:47:52.257Z,3.50
2019-03-10T19:50:18.233Z,3.50
2019-03-10T19:52:44.978Z,3.50
2019-03-10T19:55:10.938Z,3.50
2019-03-10T19:57:36.939Z,3.50
2019-03-10T20:00:02.899Z,3.50
2019-03-10T20:02:28.901Z,3.40
2019-03-10T20:04:54.871Z,3.40
2019-03-10T20:07:20.872Z,3.40
2019-03-10T20:09:46.823Z,3.50
2019-03-10T20:12:13.578Z,3.40
2019-03-10T20:14:40.284Z,3.30
2019-03-10T20:17:06.348Z,3.30
2019-03-10T20:19:33.075Z,3.20
2019-03-10T20:21:59.806Z,3.20
2019-03-10T20:24:26.556Z,3.10
2019-03-10T20:26:53.282Z,3.00
2019-03-10T20:29:19.254Z,3.00
2019-03-10T20:31:45.207Z,3.00
2019-03-10T20:34:11.201Z,3.00
2019-03-10T20:36:37.193Z,3.00
2019-03-10T20:39:03.196Z,3.00
2019-03-10T20:41:29.192Z,3.00
2019-03-10T20:43:55.183Z,3.00
2019-03-10T20:46:21.158Z,2.90
2019-03-10T20:48:47.144Z,2.80
2019-03-10T20:51:13.129Z,2.80
2019-03-10T20:53:39.118Z,2.80
2019-03-10T20:56:07.564Z,2.70
2019-03-10T20:58:31.881Z,2.70
2019-03-10T21:00:57.877Z,2.70
2019-03-10T21:03:23.866Z,2.70
2019-03-10T21:05:50.547Z,2.60
2019-03-10T21:08:16.528Z,2.60
2019-03-10T21:10:43.252Z,2.50
2019-03-10T21:13:09.987Z,2.40
2019-03-10T21:15:35.968Z,2.40
2019-03-10T21:18:01.966Z,2.40
2019-03-10T21:20:27.986Z,2.40
2019-03-10T21:22:53.982Z,2.40
2019-03-10T21:25:19.989Z,2.40
2019-03-10T21:27:45.947Z,2.50
2019-03-10T21:30:12.667Z,2.50
2019-03-10T21:32:38.682Z,2.50
2019-03-10T21:35:04.648Z,2.60
2019-03-10T21:37:30.643Z,2.50
2019-03-10T21:39:56.612Z,2.50
2019-03-10T21:42:22.570Z,2.60
2019-03-10T21:44:48.543Z,2.60
2019-03-10T21:47:14.496Z,2.60
2019-03-10T21:49:40.497Z,2.60
2019-03-10T21:52:06.460Z,2.50
2019-03-10T21:54:32.455Z,2.60
2019-03-10T21:56:58.415Z,2.60
2019-03-10T21:59:24.422Z,2.70
2019-03-10T22:01:50.382Z,2.70
2019-03-10T22:04:16.365Z,2.70
2019-03-10T22:06:42.329Z,2.70
2019-03-10T22:09:09.041Z,2.80
2019-03-10T22:11:34.988Z,2.80
2019-03-10T22:14:01.729Z,2.80
2019-03-10T22:16:28.437Z,2.90
2019-03-10T22:18:54.392Z,2.90
2019-03-10T22:21:20.386Z,3.00
2019-03-10T22:23:46.343Z,3.00
2019-03-10T22:26:12.327Z,3.10
2019-03-10T22:28:38.292Z,3.20
2019-03-10T22:31:04.291Z,3.20
2019-03-10T22:33:31.023Z,3.30
2019-03-10T22:35:57.767Z,3.30
2019-03-10T22:38:23.726Z,3.30
2019-03-10T22:40:49.706Z,3.40
2019-03-10T22:43:15.665Z,3.30
2019-03-10T22:45:41.649Z,3.40
2019-03-10T22:48:07.606Z,3.30
2019-03-10T22:50:33.607Z,3.30
2019-03-10T22:53:00.321Z,3.30
2019-03-10T22:55:26.287Z,3.40
2019-03-10T22:57:52.308Z,3.40
2019-03-10T23:00:18.290Z,3.40
2019-03-10T23:02:44.251Z,3.40
2019-03-10T23:05:11.004Z,3.40
2019-03-10T23:07:36.968Z,3.40
2019-03-10T23:10:02.951Z,3.20
2019-03-10T23:12:28.933Z,3.20
2019-03-10T23:14:54.923Z,3.10
2019-03-10T23:17:20.899Z,3.10
2019-03-10T23:19:47.592Z,3.10
2019-03-10T23:22:13.580Z,3.00
2019-03-10T23:24:39.549Z,3.00
2019-03-10T23:27:05.520Z,3.00
2019-03-10T23:29:31.514Z,2.90
2019-03-10T23:31:57.500Z,2.90
2019-03-10T23:34:23.465Z,2.80
2019-03-10T23:36:49.441Z,2.80
2019-03-10T23:39:15.389Z,2.80
2019-03-10T23:41:41.384Z,2.80
2019-03-10T23:44:07.365Z,2.80
2019-03-10T23:46:34.083Z,2.90
2019-03-10T23:49:00.064Z,2.90
2019-03-10T23:51:26.046Z,3.00
2019-03-10T23:53:52.785Z,3.00
2019-03-10T23:56:18.800Z,3.00
2019-03-10T23:58:45.518Z,3.00
